createdAt,value
2023-05-09T00:00:14.860Z,0.00
2023-05-09T00:01:14.864Z,0.00
2023-05-09T00:02:14.907Z,0.00
2023-05-09T00:03:14.964Z,0.00
2023-05-09T00:04:14.872Z,0.00
2023-05-09T00:05:15.164Z,0.00
2023-05-09T00:06:14.815Z,0.00
2023-05-09T00:07:14.831Z,0.00
2023-05-09T00:08:14.809Z,0.00
2023-05-09T00:09:14.806Z,0.00
2023-05-09T00:10:14.788Z,0.00
2023-05-09T00:11:14.783Z,0.00
2023-05-09T00:12:14.809Z,0.00
2023-05-09T00:13:14.849Z,0.00
2023-05-09T00:14:14.764Z,0.00
2023-05-09T00:15:14.933Z,0.00
2023-05-09T00:16:14.796Z,0.00
2023-05-09T00:17:14.760Z,0.00
2023-05-09T00:18:14.719Z,0.00
2023-05-09T00:19:14.817Z,0.00
2023-05-09T00:20:14.786Z,0.00
2023-05-09T00:21:14.733Z,0.00
2023-05-09T00:22:14.721Z,0.00
2023-05-09T00:23:14.692Z,0.00
2023-05-09T00:24:14.695Z,0.00
2023-05-09T00:25:14.945Z,0.00
2023-05-09T00:26:14.679Z,0.00
2023-05-09T00:27:14.657Z,0.00
2023-05-09T00:28:14.660Z,0.00
2023-05-09T00:29:14.654Z,0.00
2023-05-09T00:30:14.626Z,0.00
2023-05-09T00:31:14.664Z,0.00
2023-05-09T00:32:14.723Z,0.00
2023-05-09T00:33:14.606Z,0.00
2023-05-09T00:34:14.605Z,0.00
2023-05-09T00:35:15.034Z,0.00
2023-05-09T00:36:14.609Z,0.00
2023-05-09T00:37:14.577Z,0.00
2023-05-09T00:38:14.622Z,0.00
2023-05-09T00:39:14.550Z,0.00
2023-05-09T00:40:14.572Z,0.00
2023-05-09T00:41:14.549Z,0.00
2023-05-09T00:42:14.538Z,0.00
2023-05-09T00:43:14.528Z,0.00
2023-05-09T00:44:14.522Z,0.00
2023-05-09T00:45:14.717Z,0.00
2023-05-09T00:46:14.505Z,0.00
2023-05-09T00:47:14.496Z,0.00
2023-05-09T00:48:14.488Z,0.00
2023-05-09T00:49:14.502Z,0.00
2023-05-09T00:50:14.505Z,0.00
2023-05-09T00:51:14.550Z,0.00
2023-05-09T00:52:14.465Z,0.00
2023-05-09T00:53:14.453Z,0.00
2023-05-09T00:54:14.474Z,0.00
2023-05-09T00:55:14.525Z,0.00
2023-05-09T00:56:14.424Z,0.00
2023-05-09T00:57:14.415Z,0.00
2023-05-09T00:58:14.408Z,0.00
2023-05-09T00:59:15.280Z,0.00
2023-05-09T01:00:14.395Z,0.00
2023-05-09T01:01:14.451Z,0.00
2023-05-09T01:02:14.384Z,0.00
2023-05-09T01:03:14.491Z,0.00
2023-05-09T01:04:14.380Z,0.00
2023-05-09T01:05:14.626Z,0.00
2023-05-09T01:06:14.348Z,0.00
2023-05-09T01:07:14.423Z,0.00
2023-05-09T01:08:14.365Z,0.00
2023-05-09T01:09:14.318Z,0.00
2023-05-09T01:10:14.308Z,0.00
2023-05-09T01:11:14.308Z,0.00
2023-05-09T01:12:14.291Z,0.00
2023-05-09T01:13:14.391Z,0.00
2023-05-09T01:14:14.277Z,0.00
2023-05-09T01:15:14.476Z,0.00
2023-05-09T01:16:14.281Z,0.00
2023-05-09T01:17:14.276Z,0.00
2023-05-09T01:18:14.371Z,0.00
2023-05-09T01:19:14.254Z,0.00
2023-05-09T01:20:14.243Z,0.00
2023-05-09T01:21:14.235Z,0.00
2023-05-09T01:22:14.277Z,0.00
2023-05-09T01:23:14.286Z,0.00
2023-05-09T01:24:14.200Z,0.00
2023-05-09T01:25:14.380Z,0.00
2023-05-09T01:26:14.188Z,0.00
2023-05-09T01:27:14.211Z,0.00
2023-05-09T01:28:14.178Z,0.00
2023-05-09T01:29:14.158Z,0.00
2023-05-09T01:30:14.196Z,0.00
2023-05-09T01:31:14.204Z,0.00
2023-05-09T01:32:14.160Z,0.00
2023-05-09T01:33:14.123Z,0.00
2023-05-09T01:34:14.118Z,0.00
2023-05-09T01:35:14.466Z,0.00
2023-05-09T01:36:14.128Z,0.00
2023-05-09T01:37:14.099Z,0.00
2023-05-09T01:38:14.098Z,0.00
2023-05-09T01:39:14.158Z,0.00
2023-05-09T01:40:14.071Z,0.00
2023-05-09T01:41:14.085Z,0.00
2023-05-09T01:42:14.140Z,0.00
2023-05-09T01:43:14.049Z,0.00
2023-05-09T01:44:14.088Z,0.00
2023-05-09T01:45:14.309Z,0.00
2023-05-09T01:46:14.072Z,0.00
2023-05-09T01:47:14.012Z,0.00
2023-05-09T01:48:14.009Z,0.00
2023-05-09T01:49:14.001Z,0.00
2023-05-09T01:50:14.039Z,0.00
2023-05-09T01:51:13.989Z,0.00
2023-05-09T01:52:14.002Z,0.00
2023-05-09T01:53:13.965Z,0.00
2023-05-09T01:54:13.968Z,0.00
2023-05-09T01:55:14.265Z,0.00
2023-05-09T01:56:13.956Z,0.00
2023-05-09T01:57:13.947Z,0.00
2023-05-09T01:58:13.936Z,0.00
2023-05-09T01:59:13.951Z,0.00
2023-05-09T02:00:13.944Z,0.00
2023-05-09T02:01:13.952Z,0.00
2023-05-09T02:02:13.911Z,0.00
2023-05-09T02:03:13.969Z,0.00
2023-05-09T02:04:13.946Z,0.00
2023-05-09T02:05:14.150Z,0.00
2023-05-09T02:06:13.870Z,0.00
2023-05-09T02:07:13.870Z,0.00
2023-05-09T02:08:13.853Z,0.00
2023-05-09T02:09:13.884Z,0.00
2023-05-09T02:10:13.837Z,0.00
2023-05-09T02:11:13.916Z,0.00
2023-05-09T02:12:13.909Z,0.00
2023-05-09T02:13:13.863Z,0.00
2023-05-09T02:14:13.826Z,0.00
2023-05-09T02:15:14.014Z,0.00
2023-05-09T02:16:13.832Z,0.00
2023-05-09T02:17:13.781Z,0.00
2023-05-09T02:18:13.809Z,0.00
2023-05-09T02:19:13.752Z,0.00
2023-05-09T02:20:14.754Z,0.00
2023-05-09T02:21:13.757Z,0.00
2023-05-09T02:22:45.679Z,0.00
2023-05-09T02:23:13.760Z,0.00
2023-05-09T02:24:13.730Z,0.00
2023-05-09T02:25:13.897Z,0.00
2023-05-09T02:26:13.710Z,0.00
2023-05-09T02:27:13.867Z,0.00
2023-05-09T02:28:13.720Z,0.00
2023-05-09T02:29:13.692Z,0.00
2023-05-09T02:30:13.685Z,0.00
2023-05-09T02:31:13.678Z,0.00
2023-05-09T02:32:13.991Z,0.00
2023-05-09T02:33:13.700Z,0.00
2023-05-09T02:34:13.649Z,0.00
2023-05-09T02:35:13.880Z,0.00
2023-05-09T02:36:13.632Z,0.00
2023-05-09T02:37:13.678Z,0.00
2023-05-09T02:38:14.627Z,0.00
2023-05-09T02:39:13.625Z,0.00
2023-05-09T02:40:13.596Z,0.00
2023-05-09T02:41:13.593Z,0.00
2023-05-09T02:42:13.613Z,0.00
2023-05-09T02:43:13.660Z,0.00
2023-05-09T02:44:13.567Z,0.00
2023-05-09T02:45:13.804Z,0.00
2023-05-09T02:46:13.621Z,0.00
2023-05-09T02:47:13.578Z,0.00
2023-05-09T02:48:13.567Z,0.00
2023-05-09T02:49:22.774Z,0.00
2023-05-09T02:50:15.534Z,0.00
2023-05-09T02:51:13.543Z,0.00
2023-05-09T02:52:13.509Z,0.00
2023-05-09T02:53:13.514Z,0.00
2023-05-09T02:54:13.495Z,4.00
2023-05-09T02:55:13.651Z,0.00
2023-05-09T02:56:13.503Z,0.00
2023-05-09T02:57:13.472Z,0.00
2023-05-09T02:58:15.011Z,4.00
2023-05-09T02:59:14.460Z,0.00
2023-05-09T03:00:13.580Z,4.00
2023-05-09T03:01:13.498Z,0.00
2023-05-09T03:02:13.434Z,4.00
2023-05-09T03:03:13.469Z,4.00
2023-05-09T03:04:13.420Z,4.00
2023-05-09T03:05:13.573Z,4.00
2023-05-09T03:06:13.426Z,4.00
2023-05-09T03:07:13.394Z,8.00
2023-05-09T03:08:13.381Z,8.00
2023-05-09T03:09:13.374Z,8.00
2023-05-09T03:10:13.402Z,12.00
2023-05-09T03:11:13.357Z,8.00
2023-05-09T03:12:13.352Z,16.00
2023-05-09T03:13:13.383Z,12.00
2023-05-09T03:14:13.342Z,20.00
2023-05-09T03:15:13.733Z,20.00
2023-05-09T03:16:13.341Z,24.00
2023-05-09T03:17:13.309Z,24.00
2023-05-09T03:18:13.296Z,32.00
2023-05-09T03:19:13.326Z,36.00
2023-05-09T03:20:13.307Z,44.00
2023-05-09T03:21:13.282Z,48.00
2023-05-09T03:22:13.260Z,56.00
2023-05-09T03:23:13.262Z,64.00
2023-05-09T03:24:13.273Z,72.00
2023-05-09T03:25:13.492Z,84.00
2023-05-09T03:26:13.237Z,96.00
2023-05-09T03:27:13.223Z,108.00
2023-05-09T03:28:13.218Z,120.00
2023-05-09T03:29:13.234Z,136.00
2023-05-09T03:30:13.215Z,156.00
2023-05-09T03:31:13.328Z,172.00
2023-05-09T03:32:15.132Z,196.00
2023-05-09T03:33:13.233Z,216.00
2023-05-09T03:34:13.234Z,240.00
2023-05-09T03:35:13.367Z,264.00
2023-05-09T03:36:13.151Z,292.00
2023-05-09T03:37:13.148Z,324.00
2023-05-09T03:38:13.164Z,352.00
2023-05-09T03:39:13.137Z,388.00
2023-05-09T03:40:13.130Z,424.00
2023-05-09T03:41:13.116Z,460.00
2023-05-09T03:42:13.129Z,500.00
2023-05-09T03:43:13.126Z,544.00
2023-05-09T03:44:13.093Z,588.00
2023-05-09T03:45:13.282Z,636.00
2023-05-09T03:46:13.130Z,684.00
2023-05-09T03:47:13.191Z,740.00
2023-05-09T03:48:13.133Z,792.00
2023-05-09T03:49:13.049Z,852.00
2023-05-09T03:50:13.067Z,916.00
2023-05-09T03:51:13.048Z,984.00
2023-05-09T03:52:13.057Z,1052.00
2023-05-09T03:53:13.022Z,1132.00
2023-05-09T03:54:13.025Z,1212.00
2023-05-09T03:55:13.240Z,1296.00
2023-05-09T03:56:12.996Z,1388.00
2023-05-09T03:57:13.014Z,1480.00
2023-05-09T03:58:12.986Z,1580.00
2023-05-09T03:59:12.972Z,1684.00
2023-05-09T04:00:12.969Z,1840.00
2023-05-09T04:01:12.978Z,2132.00
2023-05-09T04:02:13.018Z,2412.00
2023-05-09T04:03:13.068Z,2660.00
2023-05-09T04:04:12.976Z,2768.00
2023-05-09T04:05:13.070Z,2896.00
2023-05-09T04:06:12.961Z,3044.00
2023-05-09T04:07:12.910Z,3292.00
2023-05-09T04:08:12.906Z,3552.00
2023-05-09T04:09:12.895Z,3868.00
2023-05-09T04:10:12.887Z,4256.00
2023-05-09T04:11:12.905Z,4768.00
2023-05-09T04:12:12.870Z,5128.00
2023-05-09T04:13:12.953Z,5492.00
2023-05-09T04:14:12.858Z,6084.00
2023-05-09T04:15:13.001Z,6600.00
2023-05-09T04:16:12.867Z,7316.00
2023-05-09T04:17:12.845Z,7916.00
2023-05-09T04:18:12.830Z,8480.00
2023-05-09T04:19:12.899Z,9024.00
2023-05-09T04:20:12.842Z,9408.00
2023-05-09T04:21:12.826Z,9984.00
2023-05-09T04:22:12.789Z,10688.00
2023-05-09T04:23:12.786Z,10976.00
2023-05-09T04:24:12.778Z,11008.00
2023-05-09T04:25:12.966Z,11840.00
2023-05-09T04:26:12.761Z,13248.00
2023-05-09T04:27:12.754Z,13664.00
2023-05-09T04:28:12.762Z,14912.00
2023-05-09T04:29:12.747Z,16128.00
2023-05-09T04:30:12.754Z,16992.00
2023-05-09T04:31:12.825Z,17312.00
2023-05-09T04:32:12.762Z,18208.00
2023-05-09T04:33:12.708Z,18752.00
2023-05-09T04:34:12.732Z,19488.00
2023-05-09T04:35:13.036Z,20384.00
2023-05-09T04:36:12.683Z,21408.00
2023-05-09T04:37:12.681Z,22752.00
2023-05-09T04:38:12.668Z,23616.00
2023-05-09T04:39:12.682Z,24160.00
2023-05-09T04:40:12.652Z,24640.00
2023-05-09T04:41:12.649Z,26272.00
2023-05-09T04:42:12.641Z,25632.00
2023-05-09T04:43:12.631Z,26592.00
2023-05-09T04:44:12.649Z,27712.00
2023-05-09T04:45:12.929Z,28416.00
2023-05-09T04:46:12.651Z,30816.00
2023-05-09T04:47:12.594Z,30336.00
2023-05-09T04:48:12.610Z,32064.00
2023-05-09T04:49:12.606Z,31968.00
2023-05-09T04:50:12.585Z,33152.00
2023-05-09T04:51:12.643Z,33600.00
2023-05-09T04:52:12.565Z,33984.00
2023-05-09T04:53:12.571Z,35392.00
2023-05-09T04:54:12.548Z,35232.00
2023-05-09T04:55:12.663Z,37024.00
2023-05-09T04:56:12.522Z,36800.00
2023-05-09T04:57:17.764Z,36832.00
2023-05-09T04:58:14.546Z,38080.00
2023-05-09T04:59:12.507Z,38240.00
2023-05-09T05:00:12.498Z,39232.00
2023-05-09T05:01:12.585Z,41856.00
2023-05-09T05:02:12.484Z,43168.00
2023-05-09T05:03:12.501Z,43616.00
2023-05-09T05:04:12.486Z,45120.00
2023-05-09T05:05:12.812Z,45888.00
2023-05-09T05:06:13.459Z,46816.00
2023-05-09T05:07:12.541Z,48032.00
2023-05-09T05:08:12.464Z,48192.00
2023-05-09T05:09:12.426Z,50912.00
2023-05-09T05:10:12.420Z,52320.00
2023-05-09T05:11:12.414Z,52192.00
2023-05-09T05:12:12.436Z,51616.00
2023-05-09T05:13:12.416Z,52832.00
2023-05-09T05:14:12.386Z,53120.00
2023-05-09T05:15:12.487Z,55488.00
2023-05-09T05:16:12.415Z,56832.00
2023-05-09T05:17:12.390Z,58432.00
2023-05-09T05:18:12.376Z,59232.00
2023-05-09T05:19:12.354Z,59872.00
2023-05-09T05:20:12.345Z,57280.00
2023-05-09T05:21:12.382Z,52768.00
2023-05-09T05:22:12.346Z,58080.00
2023-05-09T05:23:12.397Z,44704.00
2023-05-09T05:24:12.312Z,37344.00
2023-05-09T05:25:12.455Z,38944.00
2023-05-09T05:26:12.321Z,39424.00
2023-05-09T05:27:12.289Z,39936.00
2023-05-09T05:28:12.281Z,33856.00
2023-05-09T05:29:12.290Z,60576.00
2023-05-09T05:30:12.277Z,54176.00
2023-05-09T05:31:12.302Z,47552.00
2023-05-09T05:32:12.258Z,64832.00
2023-05-09T05:33:12.277Z,65984.00
2023-05-09T05:34:12.238Z,65152.00
2023-05-09T05:35:12.463Z,63712.00
2023-05-09T05:36:12.250Z,62752.00
2023-05-09T05:37:12.219Z,67008.00
2023-05-09T05:38:12.214Z,68448.00
2023-05-09T05:39:12.277Z,64832.00
2023-05-09T05:40:12.231Z,64928.00
2023-05-09T05:41:12.182Z,66592.00
2023-05-09T05:42:12.179Z,69408.00
2023-05-09T05:43:12.182Z,71904.00
2023-05-09T05:44:12.160Z,72256.00
2023-05-09T05:45:12.402Z,69152.00
2023-05-09T05:46:12.233Z,65536.00
2023-05-09T05:47:12.140Z,66496.00
2023-05-09T05:48:12.180Z,66432.00
2023-05-09T05:49:12.170Z,66080.00
2023-05-09T05:50:12.234Z,66816.00
2023-05-09T05:51:12.111Z,66688.00
2023-05-09T05:52:12.099Z,66560.00
2023-05-09T05:53:12.093Z,67232.00
2023-05-09T05:54:12.114Z,67264.00
2023-05-09T05:55:12.297Z,66624.00
2023-05-09T05:56:12.069Z,66176.00
2023-05-09T05:57:12.106Z,66432.00
2023-05-09T05:58:12.059Z,66560.00
2023-05-09T05:59:13.531Z,67136.00
2023-05-09T06:00:13.051Z,65440.00
2023-05-09T06:01:12.030Z,57504.00
2023-05-09T06:02:12.085Z,65792.00
2023-05-09T06:03:12.106Z,65408.00
2023-05-09T06:04:12.065Z,66304.00
2023-05-09T06:05:12.082Z,67328.00
2023-05-09T06:06:12.013Z,67008.00
2023-05-09T06:07:12.018Z,66208.00
2023-05-09T06:08:12.017Z,65920.00
2023-05-09T06:09:11.999Z,65344.00
2023-05-09T06:10:11.985Z,65600.00
2023-05-09T06:11:12.051Z,64960.00
2023-05-09T06:12:11.967Z,64896.00
2023-05-09T06:13:12.043Z,66016.00
2023-05-09T06:14:11.957Z,63936.00
2023-05-09T06:15:12.003Z,49600.00
2023-05-09T06:16:19.286Z,64544.00
2023-05-09T06:17:14.011Z,64704.00
2023-05-09T06:18:11.965Z,65696.00
2023-05-09T06:19:11.918Z,67872.00
2023-05-09T06:20:11.916Z,66208.00
2023-05-09T06:21:11.970Z,67648.00
2023-05-09T06:22:11.925Z,66176.00
2023-05-09T06:23:11.902Z,30080.00
2023-05-09T06:24:19.791Z,28544.00
2023-05-09T06:25:14.150Z,25024.00
2023-05-09T06:26:11.882Z,24704.00
2023-05-09T06:27:11.897Z,27456.00
2023-05-09T06:28:11.864Z,51456.00
2023-05-09T06:29:11.869Z,65600.00
2023-05-09T06:30:24.827Z,70240.00
2023-05-09T06:31:13.904Z,71104.00
2023-05-09T06:32:11.873Z,72224.00
2023-05-09T06:33:11.828Z,73376.00
2023-05-09T06:34:11.827Z,74752.00
2023-05-09T06:35:11.921Z,75552.00
2023-05-09T06:36:11.882Z,77056.00
2023-05-09T06:37:11.809Z,78976.00
2023-05-09T06:38:11.799Z,79552.00
2023-05-09T06:39:11.793Z,78848.00
2023-05-09T06:40:11.785Z,78432.00
2023-05-09T06:41:11.819Z,78176.00
2023-05-09T06:42:11.785Z,80768.00
2023-05-09T06:43:12.866Z,80672.00
2023-05-09T06:44:11.760Z,80800.00
2023-05-09T06:45:11.894Z,81440.00
2023-05-09T06:46:11.810Z,79008.00
2023-05-09T06:47:11.776Z,80640.00
2023-05-09T06:48:11.738Z,80544.00
2023-05-09T06:49:11.727Z,81920.00
2023-05-09T06:50:11.754Z,84736.00
2023-05-09T06:51:11.714Z,85376.00
2023-05-09T06:52:11.707Z,87264.00
2023-05-09T06:53:11.699Z,86112.00
2023-05-09T06:54:11.696Z,85216.00
2023-05-09T06:55:11.720Z,85664.00
2023-05-09T06:56:11.682Z,87456.00
2023-05-09T06:57:11.673Z,89664.00
2023-05-09T06:58:11.675Z,93568.00
2023-05-09T06:59:11.738Z,79168.00
2023-05-09T07:00:11.741Z,46112.00
2023-05-09T07:01:11.664Z,31552.00
2023-05-09T07:02:11.646Z,28576.00
2023-05-09T07:03:11.769Z,24960.00
2023-05-09T07:04:11.654Z,23456.00
2023-05-09T07:05:11.733Z,26272.00
2023-05-09T07:06:11.622Z,27200.00
2023-05-09T07:07:11.614Z,26368.00
2023-05-09T07:08:11.604Z,27424.00
2023-05-09T07:09:11.623Z,28832.00
2023-05-09T07:10:13.067Z,26688.00
2023-05-09T07:11:12.583Z,22816.00
2023-05-09T07:12:11.585Z,20064.00
2023-05-09T07:13:11.583Z,17696.00
2023-05-09T07:14:11.590Z,16640.00
2023-05-09T07:15:11.645Z,17440.00
2023-05-09T07:16:11.597Z,23264.00
2023-05-09T07:17:22.922Z,30560.00
2023-05-09T07:18:13.560Z,33568.00
2023-05-09T07:19:11.564Z,46496.00
2023-05-09T07:20:11.550Z,61184.00
2023-05-09T07:21:11.517Z,71552.00
2023-05-09T07:22:11.541Z,86528.00
2023-05-09T07:23:11.525Z,82336.00
2023-05-09T07:24:11.501Z,98752.00
2023-05-09T07:25:11.497Z,101248.00
2023-05-09T07:26:11.487Z,89280.00
2023-05-09T07:27:11.476Z,102592.00
2023-05-09T07:28:11.506Z,103808.00
2023-05-09T07:29:11.467Z,104192.00
2023-05-09T07:30:11.462Z,97856.00
2023-05-09T07:31:11.521Z,85568.00
2023-05-09T07:32:11.491Z,83168.00
2023-05-09T07:33:11.508Z,91392.00
2023-05-09T07:34:11.431Z,97856.00
2023-05-09T07:35:11.418Z,102656.00
2023-05-09T07:36:11.423Z,105824.00
2023-05-09T07:37:12.935Z,104928.00
2023-05-09T07:38:11.399Z,106048.00
2023-05-09T07:39:11.402Z,103104.00
2023-05-09T07:40:11.381Z,97056.00
2023-05-09T07:41:11.428Z,90528.00
2023-05-09T07:42:11.402Z,91680.00
2023-05-09T07:43:11.376Z,94688.00
2023-05-09T07:44:11.362Z,97792.00
2023-05-09T07:45:11.367Z,97600.00
2023-05-09T07:46:11.387Z,97120.00
2023-05-09T07:47:11.419Z,97344.00
2023-05-09T07:48:11.361Z,97184.00
2023-05-09T07:49:11.326Z,98240.00
2023-05-09T07:50:11.330Z,97120.00
2023-05-09T07:51:11.333Z,97920.00
2023-05-09T07:52:11.313Z,94816.00
2023-05-09T07:53:11.299Z,94464.00
2023-05-09T07:54:11.290Z,95808.00
2023-05-09T07:55:11.316Z,96736.00
2023-05-09T07:56:11.309Z,96896.00
2023-05-09T07:57:11.266Z,96256.00
2023-05-09T07:58:11.261Z,96928.00
2023-05-09T07:59:11.261Z,94272.00
2023-05-09T08:00:11.275Z,92064.00
2023-05-09T08:01:11.259Z,90944.00
2023-05-09T08:02:11.254Z,90144.00
2023-05-09T08:03:11.570Z,89984.00
2023-05-09T08:04:11.295Z,86400.00
2023-05-09T08:05:11.257Z,83040.00
2023-05-09T08:06:11.239Z,70208.00
2023-05-09T08:07:11.209Z,50272.00
2023-05-09T08:08:11.805Z,41376.00
2023-05-09T08:09:11.219Z,40512.00
2023-05-09T08:10:11.234Z,40320.00
2023-05-09T08:11:11.200Z,40384.00
2023-05-09T08:12:11.182Z,40576.00
2023-05-09T08:13:11.182Z,41248.00
2023-05-09T08:14:11.839Z,41344.00
2023-05-09T08:15:11.157Z,41120.00
2023-05-09T08:16:11.189Z,40768.00
2023-05-09T08:17:11.140Z,40320.00
2023-05-09T08:18:11.141Z,40416.00
2023-05-09T08:19:11.257Z,40128.00
2023-05-09T08:20:11.131Z,40512.00
2023-05-09T08:21:11.110Z,41536.00
2023-05-09T08:22:11.105Z,40640.00
2023-05-09T08:23:11.113Z,40384.00
2023-05-09T08:24:43.030Z,40928.00
2023-05-09T08:25:11.107Z,41248.00
2023-05-09T08:26:11.072Z,40640.00
2023-05-09T08:27:11.083Z,40032.00
2023-05-09T08:28:11.113Z,32608.00
2023-05-09T08:29:11.077Z,25120.00
2023-05-09T08:30:12.051Z,23328.00
2023-05-09T08:31:11.079Z,37440.00
2023-05-09T08:32:11.034Z,38304.00
2023-05-09T08:33:11.129Z,37952.00
2023-05-09T08:34:11.026Z,37280.00
2023-05-09T08:35:11.108Z,37184.00
2023-05-09T08:36:11.013Z,36352.00
2023-05-09T08:37:12.284Z,35072.00
2023-05-09T08:38:11.028Z,34752.00
2023-05-09T08:39:10.994Z,35232.00
2023-05-09T08:40:10.989Z,34368.00
2023-05-09T08:41:10.996Z,33440.00
2023-05-09T08:42:11.008Z,32960.00
2023-05-09T08:43:10.993Z,33440.00
2023-05-09T08:44:10.979Z,33792.00
2023-05-09T08:45:10.949Z,32800.00
2023-05-09T08:46:11.051Z,34080.00
2023-05-09T08:47:10.943Z,28736.00
2023-05-09T08:48:10.966Z,25760.00
2023-05-09T08:49:10.943Z,28096.00
2023-05-09T08:50:10.915Z,34720.00
2023-05-09T08:51:11.014Z,34592.00
2023-05-09T08:52:10.925Z,30304.00
2023-05-09T08:53:10.925Z,21504.00
2023-05-09T08:54:10.897Z,30304.00
2023-05-09T08:55:10.887Z,34272.00
2023-05-09T08:56:10.876Z,31328.00
2023-05-09T08:57:10.902Z,32640.00
2023-05-09T08:58:10.878Z,32864.00
2023-05-09T08:59:10.887Z,32960.00
2023-05-09T09:00:10.858Z,28768.00
2023-05-09T09:01:10.867Z,25184.00
2023-05-09T09:02:11.026Z,27840.00
2023-05-09T09:03:10.855Z,23680.00
2023-05-09T09:04:10.830Z,32576.00
2023-05-09T09:05:23.741Z,35424.00
2023-05-09T09:06:12.838Z,35968.00
2023-05-09T09:07:10.918Z,40064.00
2023-05-09T09:08:10.845Z,41024.00
2023-05-09T09:09:10.795Z,42560.00
2023-05-09T09:10:10.778Z,44576.00
2023-05-09T09:11:10.810Z,40576.00
2023-05-09T09:12:10.770Z,43264.00
2023-05-09T09:13:11.327Z,41760.00
2023-05-09T09:14:10.764Z,40096.00
2023-05-09T09:15:10.763Z,36256.00
2023-05-09T09:16:10.793Z,39488.00
2023-05-09T09:17:10.745Z,38656.00
2023-05-09T09:18:10.759Z,35424.00
2023-05-09T09:19:10.731Z,34560.00
2023-05-09T09:20:10.850Z,31296.00
2023-05-09T09:21:10.742Z,23712.00
2023-05-09T09:22:10.708Z,24224.00
2023-05-09T09:23:10.880Z,18528.00
2023-05-09T09:24:10.696Z,17344.00
2023-05-09T09:25:10.727Z,14852.00
2023-05-09T09:26:10.677Z,13860.00
2023-05-09T09:27:10.666Z,13852.00
2023-05-09T09:28:10.669Z,13888.00
2023-05-09T09:29:10.660Z,13832.00
2023-05-09T09:30:10.684Z,14260.00
2023-05-09T09:31:10.646Z,14480.00
2023-05-09T09:32:10.667Z,14776.00
2023-05-09T09:33:10.650Z,15236.00
2023-05-09T09:34:11.640Z,18560.00
2023-05-09T09:35:10.623Z,16576.00
2023-05-09T09:36:11.603Z,16128.00
2023-05-09T09:37:10.595Z,16160.00
2023-05-09T09:38:10.584Z,15452.00
2023-05-09T09:39:10.685Z,15200.00
2023-05-09T09:40:10.582Z,15332.00
2023-05-09T09:41:10.569Z,15668.00
2023-05-09T09:42:10.567Z,15336.00
2023-05-09T09:43:10.561Z,15064.00
2023-05-09T09:44:10.576Z,15228.00
2023-05-09T09:45:10.533Z,15236.00
2023-05-09T09:46:10.662Z,14112.00
2023-05-09T09:47:10.524Z,13372.00
2023-05-09T09:48:10.580Z,13180.00
2023-05-09T09:49:10.543Z,13112.00
2023-05-09T09:50:10.509Z,13364.00
2023-05-09T09:51:10.501Z,13356.00
2023-05-09T09:52:10.500Z,13156.00
2023-05-09T09:53:10.523Z,13680.00
2023-05-09T09:54:10.483Z,14704.00
2023-05-09T09:55:10.555Z,16032.00
2023-05-09T09:56:10.475Z,16288.00
2023-05-09T09:57:10.451Z,16384.00
2023-05-09T09:58:10.490Z,16448.00
2023-05-09T09:59:10.434Z,16288.00
2023-05-09T10:00:10.421Z,15520.00
2023-05-09T10:01:10.467Z,16672.00
2023-05-09T10:02:10.444Z,16448.00
2023-05-09T10:03:10.495Z,15736.00
2023-05-09T10:04:10.433Z,15224.00
2023-05-09T10:05:10.396Z,15452.00
2023-05-09T10:06:10.391Z,15800.00
2023-05-09T10:07:11.850Z,16640.00
2023-05-09T10:08:10.371Z,15972.00
2023-05-09T10:09:10.372Z,15376.00
2023-05-09T10:10:10.350Z,16096.00
2023-05-09T10:11:10.453Z,15548.00
2023-05-09T10:12:10.357Z,14700.00
2023-05-09T10:13:10.374Z,14728.00
2023-05-09T10:14:10.318Z,14468.00
2023-05-09T10:15:10.321Z,14456.00
2023-05-09T10:16:10.541Z,14288.00
2023-05-09T10:17:10.353Z,14912.00
2023-05-09T10:18:10.415Z,13644.00
2023-05-09T10:19:10.336Z,14876.00
2023-05-09T10:20:10.300Z,13964.00
2023-05-09T10:21:10.354Z,15268.00
2023-05-09T10:22:10.261Z,14564.00
2023-05-09T10:23:10.246Z,14824.00
2023-05-09T10:24:11.262Z,15312.00
2023-05-09T10:25:10.260Z,15396.00
2023-05-09T10:26:10.264Z,15904.00
2023-05-09T10:27:10.303Z,16032.00
2023-05-09T10:28:10.221Z,16000.00
2023-05-09T10:29:10.216Z,15572.00
2023-05-09T10:30:10.274Z,15392.00
2023-05-09T10:31:10.245Z,15100.00
2023-05-09T10:32:10.185Z,13416.00
2023-05-09T10:33:10.255Z,13240.00
2023-05-09T10:34:10.172Z,13384.00
2023-05-09T10:35:10.188Z,13632.00
2023-05-09T10:36:10.161Z,13512.00
2023-05-09T10:37:10.142Z,13892.00
2023-05-09T10:38:10.149Z,13872.00
2023-05-09T10:39:10.146Z,13936.00
2023-05-09T10:40:10.177Z,14328.00
2023-05-09T10:41:10.122Z,14684.00
2023-05-09T10:42:10.119Z,14956.00
2023-05-09T10:43:10.190Z,15044.00
2023-05-09T10:44:10.113Z,14708.00
2023-05-09T10:45:10.116Z,14556.00
2023-05-09T10:46:10.101Z,14464.00
2023-05-09T10:47:10.069Z,14360.00
2023-05-09T10:48:11.073Z,15840.00
2023-05-09T10:49:10.074Z,14268.00
2023-05-09T10:50:10.051Z,14820.00
2023-05-09T10:51:10.078Z,15168.00
2023-05-09T10:52:10.026Z,14988.00
2023-05-09T10:53:10.024Z,14000.00
2023-05-09T10:54:10.041Z,14264.00
2023-05-09T10:55:10.008Z,13536.00
2023-05-09T10:56:09.996Z,14176.00
2023-05-09T10:57:10.024Z,14136.00
2023-05-09T10:58:10.005Z,13536.00
2023-05-09T10:59:10.067Z,12536.00
2023-05-09T11:00:10.979Z,12384.00
2023-05-09T11:01:09.978Z,12360.00
2023-05-09T11:02:09.970Z,12432.00
2023-05-09T11:03:10.096Z,12768.00
2023-05-09T11:04:09.963Z,13024.00
2023-05-09T11:05:09.943Z,12976.00
2023-05-09T11:06:09.931Z,12480.00
2023-05-09T11:07:09.908Z,12716.00
2023-05-09T11:08:09.930Z,12772.00
2023-05-09T11:09:09.913Z,12812.00
2023-05-09T11:10:09.949Z,13040.00
2023-05-09T11:11:09.893Z,12976.00
2023-05-09T11:12:09.888Z,12852.00
2023-05-09T11:13:10.011Z,12748.00
2023-05-09T11:14:09.892Z,12508.00
2023-05-09T11:15:09.948Z,12136.00
2023-05-09T11:16:09.939Z,11908.00
2023-05-09T11:17:09.931Z,11984.00
2023-05-09T11:18:09.906Z,12424.00
2023-05-09T11:19:09.818Z,12288.00
2023-05-09T11:20:09.813Z,12536.00
2023-05-09T11:21:09.799Z,12604.00
2023-05-09T11:22:09.815Z,12536.00
2023-05-09T11:23:09.789Z,12488.00
2023-05-09T11:24:09.774Z,13956.00
2023-05-09T11:25:09.767Z,13036.00
2023-05-09T11:26:09.772Z,14572.00
2023-05-09T11:27:09.808Z,13364.00
2023-05-09T11:28:09.746Z,12776.00
2023-05-09T11:29:09.743Z,12692.00
2023-05-09T11:30:09.765Z,12668.00
2023-05-09T11:31:09.852Z,12452.00
2023-05-09T11:32:09.817Z,12324.00
2023-05-09T11:33:09.751Z,12196.00
2023-05-09T11:34:09.706Z,12052.00
2023-05-09T11:35:09.702Z,11836.00
2023-05-09T11:36:09.720Z,11724.00
2023-05-09T11:37:09.698Z,11404.00
2023-05-09T11:38:09.685Z,11256.00
2023-05-09T11:39:09.675Z,11184.00
2023-05-09T11:40:09.680Z,10996.00
2023-05-09T11:41:09.695Z,10916.00
2023-05-09T11:42:09.642Z,10908.00
2023-05-09T11:43:09.676Z,10908.00
2023-05-09T11:44:09.632Z,10892.00
2023-05-09T11:45:09.620Z,10852.00
2023-05-09T11:46:09.692Z,10796.00
2023-05-09T11:47:09.684Z,10712.00
2023-05-09T11:48:09.658Z,10740.00
2023-05-09T11:49:11.435Z,10872.00
2023-05-09T11:50:09.616Z,11036.00
2023-05-09T11:51:09.598Z,11216.00
2023-05-09T11:52:09.585Z,11604.00
2023-05-09T11:53:09.585Z,12100.00
2023-05-09T11:54:09.567Z,12408.00
2023-05-09T11:55:12.049Z,13016.00
2023-05-09T11:56:09.552Z,13340.00
2023-05-09T11:57:09.539Z,13700.00
2023-05-09T11:58:09.522Z,13772.00
2023-05-09T11:59:09.525Z,14016.00
2023-05-09T12:00:09.531Z,14172.00
2023-05-09T12:01:11.778Z,14580.00
2023-05-09T12:02:09.514Z,14796.00
2023-05-09T12:03:09.572Z,14964.00
2023-05-09T12:04:09.554Z,14432.00
2023-05-09T12:05:09.501Z,14744.00
2023-05-09T12:06:09.480Z,14940.00
2023-05-09T12:07:09.474Z,15200.00
2023-05-09T12:08:09.438Z,14524.00
2023-05-09T12:09:09.468Z,14656.00
2023-05-09T12:10:09.471Z,14472.00